默认 日期 大小 文件数 浏览量 最新下载 xml
starfish磁力链接相关资源由用户搜索指令自动获取,结果来源于网络,本站不存储任何资料,亦不承担任何责任,请于24小时内删除,搜索到264个磁力,用时0ms。
    {"k3-horz.jpg": 67697, "sUPER-TORRENT.PL": {"SO LOOK!!!.txt": 1927, "SpeedShell..png": 195745, "super-torrent.pl.url": 50, "Torrent downloaded from super-torrent.pl.txt": 97}, "Starfish.2016.PL.DVDRiP.XViD-MX.avi": 730653350}
创建时间: 2018-11-18 16:20:36 大小:697.06 MB 文件数量:6 热度:10 最近下载:2025-01-27 11:11:03
    {"Starfish 2016 Movies DVDRip XviD AAC New Source ☻rDX☻.mkv": 734411553, "Sample ~ Starfish 2016 Movies DVDRip XviD AAC New Source ☻rDX☻.mkv": 5347337}
创建时间: 2018-11-20 01:32:44 大小:705.49 MB 文件数量:2 热度:8 最近下载:2023-04-17 21:00:11
    {"scans": {"cd.jpg": 1417111, "in.jpg": 6326148, "cover.jpg": 5341230, "front.jpg": 208992}, "folder.jpg": 22571, "Kinetic.cue": 1208, "Kinetic.log": 4671, "Kinetic.nfo": 5646, "Kinetic.sfv": 379, "01 Mover.flac": 60918778, "07 Blind.flac": 29344112, "11 ...
创建时间: 2018-11-22 16:25:57 大小:330.32 MB 文件数量:23 热度:9 最近下载:2025-01-07 19:47:09
    {"CD.jpg": 26123, "Back.jpg": 35332, "INFO.nfo": 3618, "Front.jpg": 23209, "Folder.jpg": 23209, "Bonus CD.jpg": 22484, "LIMP BIZKIT Bonus CD [MP4]": {"LIMP.mp4": 48123095, "FAITH.mp4": 34355307, "NOOKIE.mp4": 45728828, "N2GETHER.mp4": 40360208}, "Limp ...
创建时间: 2018-11-27 04:52:26 大小:328.95 MB 文件数量:26 热度:10 最近下载:2025-04-14 15:47:02
    {"Disc1": {"Starfish.cue": 1432, "Starfish.log": 4714, "04. Lost.flac": ... , "audiochecker.log": 779, "Starfish [2R].cue": 1822, "Starfish [2R].log": 5545, "06 ...
创建时间: 2018-11-28 02:15:24 大小:652.82 MB 文件数量:32 热度:9 最近下载:2023-04-20 04:10:02
    {"04 Lost.m4a": 4734542, "06 Spark.m4a": 3608534, "07 Antenna.m4a": 3796109, "08 Reptile.m4a": 4909102, "10 Hotel Womb.m4a": 5576223, "01 Destination.m4a": 5731115, "03 Blood Money.m4a": 4360053, "09 A New Season.m4a": 2843890, "02 Under The Milky Way.m4a ...
创建时间: 2018-11-30 21:37:15 大小:43.07 MB 文件数量:10 热度:7 最近下载:2023-04-20 18:10:09
    {"cover.jpg": 2480454, "01. Intro.mp3": 3323904, "15. Outro.mp3": 23760896, "05. My Way.mp3": 11094016, "12. Boiler.mp3": 16986112, "02. Hot Dog.mp3": 9381888, "08. The One.mp3": 9127936, "13. Hold On.mp3": 14077952, "04. Full Nelson.mp3": 10063872, "11. ...
创建时间: 2018-12-03 22:00:10 大小:176.78 MB 文件数量:16 热度:11 最近下载:2024-04-09 02:51:01
    {"Starfish.log": 2941, "The Church - Starfish.cue": 1116, "The Church - Starfish.txt": 445, "The Church - Starfish.flac": 311177312, "ab7a224b9da0a07f761db010_L.jpg": 41850}
创建时间: 2018-12-06 23:42:30 大小:296.81 MB 文件数量:5 热度:9 最近下载:2025-10-07 09:53:03
    {"folder.jpg": 217651, "03 Claim.mp3": 16020855, "02 Verity.mp3": 7767186, "01 Breathe.mp3": 8589970, "07 Ageless.mp3": 12313108, "06 Camerone.mp3": 10244324, "05 Reef's Edge.mp3": 10441518, "04 T-shirts Are Available in the Back.mp3": 13029832}
创建时间: 2018-12-12 18:17:26 大小:74.98 MB 文件数量:8 热度:6 最近下载:2025-02-28 11:46:01
    {"Folder.jpg": 9562, "04-Lost.mp3": 6929292, "desktop.ini": 348, "06-Spark.mp3": 5396218, "07-Antenna.mp3": 5525174, "08-Reptile.mp3": 7108954, "10-Hotel Womb.mp3": 8140602, "AlbumArtSmall.jpg": 2516, "01-Destination.mp3": 8474886, "03-Blood Money.mp3": ...
创建时间: 2018-12-13 06:11:12 大小:63.27 MB 文件数量:15 热度:5 最近下载:2022-04-23 05:46:43
    ... txt": 6030, "Starfish & The Moon.cue": 1630, "Starfish & The Moon ... flac": 41830152, "Bill Evans - Starfish & The Moon.log": 4487, " ... Bill Evans - Starfish & The Moon.m3u": 825, ... 48207473, "02 - Bill Evans - Starfish & The Moon .flac": 38451654, " ...
创建时间: 2018-12-13 06:38:07 大小:374.21 MB 文件数量:27 热度:5 最近下载:2022-04-23 06:37:14
    {"cover.jpg": 54725, "02. Bad Dog.mp3": 10676430, "07. Bullets.mp3": 9948136, "08. Crawlin'.mp3": 8492595, "10. Rock Diva.mp3": 8164500, "09. Cinderella.mp3": 8900109, "03. Heavyweight.mp3": 8921009, "04. Mother Lover.mp3": 8262725, "05. Sin City Baby.mp3 ...
创建时间: 2018-12-14 19:22:39 大小:85.85 MB 文件数量:11 热度:4 最近下载:2022-04-23 06:34:31
    {"The Church - Starfish [remaster]": {"04. Lost.flac": 34179482, " ... .com.txt": 47, "The Church - Starfish [remaster] (bonus disc)": {"12. Musk ...
创建时间: 2018-12-21 04:58:37 大小:652.23 MB 文件数量:23 热度:7 最近下载:2022-04-23 06:33:37
    {"5rFF.nfo": 4156, "5rFF-starfish.ts": 3249364364}
创建时间: 2018-12-21 14:25:01 大小:3.03 GB 文件数量:2 热度:11 最近下载:2025-10-12 06:30:02
    {"Legal Torrents.nfo": 1634, "More Downloads!.url": 88, "Torrent downloaded from Demonoid.com.txt": 47, "(PDF) (Manifesto) Changing the Rules Lessons from a Starfish World.rar": 648400}
创建时间: 2018-12-21 20:03:47 大小:634.93 KB 文件数量:4 热度:11 最近下载:2025-03-20 16:19:03
    ... Miss You.flac": 35580998, "Starfish & The Moon.log": 3111 ... .flac": 48457697, "02 - Starfish & The Moon.flac": 38614786, ... Rose.flac": 37841873, "Starfish & The Moon_Single Wav.CUE ... "Bill Evans - Starfish & The Moon.m3u": 263, "Starfish & The Moon_Noncompliant. ...
创建时间: 2018-12-22 02:30:05 大小:375.85 MB 文件数量:25 热度:4 最近下载:2021-06-17 16:24:50
    {"Covers": {"P_20160403_140858_BF.jpg": 1404065, "P_20160403_140929_BF.jpg": 1413846, "P_20160403_141044_BF.jpg": 1441106, "P_20160403_141106_BF.jpg": 1450862, "P_20160403_141140_BF.jpg": 1147017, "P_20160403_141158_BF.jpg": 984748, "P_20160403_141243_BF. ...
创建时间: 2018-12-22 05:49:42 大小:3.07 GB 文件数量:22 热度:10 最近下载:2024-06-08 15:05:03
    ... ": 15321984, "00. Limp Bizkit - Chocolate Starfish And The Hot Dog Flavored ... ": 3101, "00. Limp Bizkit - Chocolate Starfish And The Hot Dog Flavored ...
创建时间: 2018-12-22 19:51:19 大小:176.96 MB 文件数量:22 热度:7 最近下载:2025-04-06 18:57:01
    {"ART": {"CD.jpg": 391065, "Back.jpg": 613502, "Front.jpg": 402704, "Inlay.jpg": 583605, "Front-Inside Page 2 & 3.jpg": 1560939, "Front-Inside Page 4 & 5.jpg": 1467316, "Front-Inside Page 6 & 7.jpg": 1304929, "Front-Inside Page 8 & 9.jpg": 1318027, "Front- ...
创建时间: 2018-12-24 23:29:34 大小:181.89 MB 文件数量:26 热度:9 最近下载:2023-04-15 00:10:08
    {"front.jpg": 210470, "2000 - Chocolate Starfish And The Hotdog Flavored Water (Remastered US Promo CD 16-48 FLAC).flac": 504262663, "-2000 - Chocolate Starfish And The Hotdog Flavored Water (Remastered US Promo CD 16-48 FLAC).foo_dr.txt": 916}
创建时间: 2018-12-26 23:12:18 大小:481.1 MB 文件数量:3 热度:11 最近下载:2024-08-21 01:32:02